createdAt,value
2022-11-04T00:02:09.005Z,11.28
2022-11-04T00:04:35.438Z,11.31
2022-11-04T00:07:02.087Z,11.34
2022-11-04T00:09:30.481Z,11.35
2022-11-04T00:12:16.458Z,11.34
2022-11-04T00:14:43.498Z,11.31
2022-11-04T00:17:19.827Z,11.28
2022-11-04T00:20:07.033Z,11.26
2022-11-04T00:22:53.855Z,11.27
2022-11-04T00:28:35.468Z,11.35
2022-11-04T00:31:23.902Z,11.41
2022-11-04T00:33:52.247Z,11.47
2022-11-04T00:36:19.150Z,11.52
2022-11-04T00:38:46.219Z,11.56
2022-11-04T00:41:28.337Z,11.58
2022-11-04T00:44:00.568Z,11.61
2022-11-04T00:46:28.617Z,11.63
2022-11-04T00:48:55.781Z,11.65
2022-11-04T00:51:22.672Z,11.66
2022-11-04T00:53:49.977Z,11.67
2022-11-04T00:56:16.978Z,11.68
2022-11-04T00:58:43.632Z,11.69
2022-11-04T01:01:18.419Z,11.70
2022-11-04T01:03:47.284Z,11.71
2022-11-04T01:06:14.033Z,11.72
2022-11-04T01:08:40.985Z,11.73
2022-11-04T01:11:09.409Z,11.75
2022-11-04T01:13:36.819Z,11.78
2022-11-04T01:16:05.839Z,11.78
2022-11-04T01:18:32.706Z,11.80
2022-11-04T01:21:04.660Z,11.81
2022-11-04T01:23:31.121Z,11.81
2022-11-04T01:25:57.669Z,11.81
2022-11-04T01:28:24.345Z,11.80
2022-11-04T01:30:50.778Z,11.76
2022-11-04T01:33:17.730Z,11.69
2022-11-04T01:35:44.243Z,11.59
2022-11-04T01:38:11.269Z,11.50
2022-11-04T01:40:39.847Z,11.42
2022-11-04T01:43:14.980Z,11.35
2022-11-04T01:45:48.726Z,11.27
2022-11-04T01:48:31.643Z,11.19
2022-11-04T01:50:59.818Z,11.13
2022-11-04T01:53:31.701Z,11.09
2022-11-04T01:56:01.378Z,11.07
2022-11-04T01:58:34.391Z,11.05
2022-11-04T02:01:01.815Z,11.04
2022-11-04T02:03:34.212Z,11.02
2022-11-04T02:06:02.901Z,11.00
2022-11-04T02:08:29.950Z,10.98
2022-11-04T02:11:01.215Z,10.97
2022-11-04T02:13:30.435Z,10.99
2022-11-04T02:16:35.661Z,10.99
2022-11-04T02:19:38.769Z,11.00
2022-11-04T02:22:26.999Z,11.01
2022-11-04T02:25:27.625Z,11.00
2022-11-04T02:28:19.089Z,10.99
2022-11-04T02:30:59.335Z,11.00
2022-11-04T02:33:35.749Z,10.99
2022-11-04T02:36:07.591Z,11.01
2022-11-04T02:38:38.155Z,11.02
2022-11-04T02:41:40.440Z,11.02
2022-11-04T02:44:41.920Z,11.04
2022-11-04T02:47:16.946Z,11.04
2022-11-04T02:50:03.262Z,11.05
2022-11-04T02:52:50.287Z,11.04
2022-11-04T02:55:24.245Z,11.04
2022-11-04T02:57:55.770Z,11.05
2022-11-04T03:00:22.505Z,11.06
2022-11-04T03:03:18.343Z,11.07
2022-11-04T03:05:48.292Z,11.08
2022-11-04T03:08:25.769Z,11.09
2022-11-04T03:10:57.177Z,11.08
2022-11-04T03:13:44.989Z,11.08
2022-11-04T03:16:17.556Z,11.07
2022-11-04T03:18:56.613Z,11.08
2022-11-04T03:21:26.214Z,11.10
2022-11-04T03:23:54.162Z,11.10
2022-11-04T03:26:30.052Z,11.10
2022-11-04T03:29:25.104Z,11.13
2022-11-04T03:32:06.188Z,11.15
2022-11-04T03:34:33.166Z,11.16
2022-11-04T03:36:59.860Z,11.18
2022-11-04T03:39:26.572Z,11.18
2022-11-04T03:41:57.037Z,11.17
2022-11-04T03:44:24.555Z,11.15
2022-11-04T03:46:54.114Z,11.12
2022-11-04T03:49:24.766Z,11.09
2022-11-04T03:51:52.488Z,11.04
2022-11-04T03:54:19.840Z,10.99
2022-11-04T03:57:08.748Z,10.95
2022-11-04T03:59:47.187Z,10.90
2022-11-04T04:02:25.479Z,10.87
2022-11-04T04:05:03.638Z,10.84
2022-11-04T04:07:39.186Z,10.84
2022-11-04T04:10:41.624Z,10.84
2022-11-04T04:13:21.678Z,10.81
2022-11-04T04:16:02.892Z,10.78
2022-11-04T04:18:59.237Z,10.76
2022-11-04T04:21:32.143Z,10.73
2022-11-04T04:24:21.029Z,10.69
2022-11-04T04:27:09.098Z,10.67
2022-11-04T04:29:36.784Z,10.64
2022-11-04T04:32:05.451Z,10.63
2022-11-04T04:34:33.476Z,10.61
2022-11-04T04:37:25.622Z,10.60
2022-11-04T04:40:14.439Z,10.59
2022-11-04T04:42:59.538Z,10.57
2022-11-04T04:45:36.311Z,10.56
2022-11-04T04:48:03.500Z,10.54
2022-11-04T04:50:37.679Z,10.53
2022-11-04T04:53:04.222Z,10.53
2022-11-04T04:55:38.957Z,10.52
2022-11-04T04:58:08.451Z,10.50
2022-11-04T05:00:35.083Z,10.49
2022-11-04T05:03:01.681Z,10.48
2022-11-04T05:05:28.196Z,10.45
2022-11-04T05:07:54.655Z,10.43
2022-11-04T05:10:21.179Z,10.42
2022-11-04T05:13:06.309Z,10.40
2022-11-04T05:15:32.884Z,10.38
2022-11-04T05:18:03.284Z,10.36
2022-11-04T05:20:30.479Z,10.34
2022-11-04T05:22:57.156Z,10.33
2022-11-04T05:25:23.553Z,10.31
2022-11-04T05:27:50.139Z,10.30
2022-11-04T05:30:16.672Z,10.28
2022-11-04T05:32:43.245Z,10.28
2022-11-04T05:35:09.686Z,10.25
2022-11-04T05:37:36.198Z,10.22
2022-11-04T05:40:02.729Z,10.19
2022-11-04T05:42:30.868Z,10.18
2022-11-04T05:44:57.296Z,10.16
2022-11-04T05:47:23.717Z,10.13
2022-11-04T05:49:50.112Z,10.12
2022-11-04T05:52:16.552Z,10.10
2022-11-04T05:54:42.957Z,10.06
2022-11-04T05:57:10.568Z,10.04
2022-11-04T05:59:37.062Z,10.01
2022-11-04T06:02:03.637Z,10.01
2022-11-04T06:04:30.218Z,9.99
2022-11-04T06:06:56.773Z,9.97
2022-11-04T06:09:38.864Z,9.94
2022-11-04T06:12:16.689Z,9.92
2022-11-04T06:14:43.793Z,9.90
2022-11-04T06:17:15.553Z,9.87
2022-11-04T06:19:42.226Z,9.84
2022-11-04T06:22:11.388Z,9.80
2022-11-04T06:24:37.895Z,9.78
2022-11-04T06:27:04.736Z,9.76
2022-11-04T06:29:31.574Z,9.74
2022-11-04T06:31:58.503Z,9.73
2022-11-04T06:34:25.281Z,9.71
2022-11-04T06:36:51.811Z,9.71
2022-11-04T06:39:18.418Z,9.70
2022-11-04T06:41:47.644Z,9.71
2022-11-04T06:44:17.067Z,9.71
2022-11-04T06:46:44.195Z,9.72
2022-11-04T06:49:22.023Z,9.73
2022-11-04T06:51:49.523Z,9.74
2022-11-04T06:54:17.106Z,9.78
2022-11-04T06:56:44.328Z,9.83
2022-11-04T06:59:21.012Z,9.86
2022-11-04T07:01:49.439Z,9.90
2022-11-04T07:04:16.033Z,9.95
2022-11-04T07:06:44.526Z,9.97
2022-11-04T07:09:13.931Z,10.04
2022-11-04T07:11:41.382Z,10.07
2022-11-04T07:14:09.068Z,10.11
2022-11-04T07:16:35.903Z,10.16
2022-11-04T07:19:02.961Z,10.21
2022-11-04T07:21:29.664Z,10.23
2022-11-04T07:23:56.245Z,10.27
2022-11-04T07:26:22.876Z,10.30
2022-11-04T07:28:49.348Z,10.31
2022-11-04T07:31:16.122Z,10.35
2022-11-04T07:33:43.117Z,10.39
2022-11-04T07:36:12.901Z,10.44
2022-11-04T07:38:39.439Z,10.50
2022-11-04T07:41:06.168Z,10.55
2022-11-04T07:43:33.000Z,10.58
2022-11-04T07:46:18.566Z,10.59
2022-11-04T07:48:45.171Z,10.63
2022-11-04T07:51:16.312Z,10.63
2022-11-04T07:53:43.764Z,10.66
2022-11-04T07:56:12.194Z,10.66
2022-11-04T07:58:38.929Z,10.67
2022-11-04T08:01:08.393Z,10.68
2022-11-04T08:03:36.700Z,10.71
2022-11-04T08:06:05.088Z,10.74
2022-11-04T08:08:31.780Z,10.78
2022-11-04T08:11:11.450Z,10.84
2022-11-04T08:13:40.943Z,10.91
2022-11-04T08:16:12.485Z,10.97
2022-11-04T08:18:40.372Z,11.04
2022-11-04T08:21:07.391Z,11.11
2022-11-04T08:23:34.378Z,11.19
2022-11-04T08:26:13.148Z,11.20
2022-11-04T08:28:40.458Z,11.22
2022-11-04T08:31:11.706Z,11.21
2022-11-04T08:33:38.328Z,11.18
2022-11-04T08:36:27.346Z,11.14
2022-11-04T08:38:55.068Z,11.09
2022-11-04T08:41:25.532Z,11.06
2022-11-04T08:43:52.442Z,11.05
2022-11-04T08:46:19.605Z,11.05
2022-11-04T08:48:46.251Z,11.08
2022-11-04T08:51:17.155Z,11.13
2022-11-04T08:53:44.044Z,11.19
2022-11-04T08:56:22.223Z,11.28
2022-11-04T08:58:49.778Z,11.35
2022-11-04T09:01:16.978Z,11.38
2022-11-04T09:03:43.486Z,11.45
2022-11-04T09:06:13.934Z,11.50
2022-11-04T09:08:41.211Z,11.52
2022-11-04T09:11:10.651Z,11.51
2022-11-04T09:13:39.913Z,11.51
2022-11-04T09:16:08.200Z,11.51
2022-11-04T09:18:34.701Z,11.51
2022-11-04T09:21:02.524Z,11.53
2022-11-04T09:23:28.993Z,11.54
2022-11-04T09:25:57.271Z,11.56
2022-11-04T09:28:23.892Z,11.62
2022-11-04T09:30:50.960Z,11.67
2022-11-04T09:33:17.771Z,11.75
2022-11-04T09:35:44.241Z,11.78
2022-11-04T09:38:10.817Z,11.80
2022-11-04T09:40:40.032Z,11.87
2022-11-04T09:43:57.793Z,11.89
2022-11-04T09:46:24.865Z,11.89
2022-11-04T09:48:55.441Z,11.87
2022-11-04T09:51:52.403Z,11.85
2022-11-04T09:54:35.095Z,11.83
2022-11-04T09:57:03.153Z,11.81
2022-11-04T09:59:33.138Z,11.79
2022-11-04T10:02:17.695Z,11.78
2022-11-04T10:05:03.799Z,11.78
2022-11-04T10:08:01.597Z,11.86
2022-11-04T10:10:56.775Z,12.01
2022-11-04T10:13:29.149Z,12.10
2022-11-04T10:16:23.956Z,12.08
2022-11-04T10:19:22.885Z,12.07
2022-11-04T10:22:29.169Z,12.05
2022-11-04T10:25:08.610Z,12.09
2022-11-04T10:27:38.403Z,12.15
2022-11-04T10:30:15.943Z,12.15
2022-11-04T10:32:48.758Z,12.20
2022-11-04T10:35:15.353Z,12.27
2022-11-04T10:37:42.395Z,12.35
2022-11-04T10:40:24.010Z,12.41
2022-11-04T10:42:51.586Z,12.45
2022-11-04T10:45:23.742Z,12.34
2022-11-04T10:47:59.030Z,12.37
2022-11-04T10:50:34.716Z,12.30
2022-11-04T10:53:19.351Z,12.29
2022-11-04T10:56:14.213Z,12.31
2022-11-04T10:58:47.886Z,12.40
2022-11-04T11:01:33.062Z,12.40
2022-11-04T11:04:00.666Z,12.44
2022-11-04T11:06:32.826Z,12.53
2022-11-04T11:09:15.412Z,12.59
2022-11-04T11:11:50.453Z,12.68
2022-11-04T11:14:32.139Z,12.95
2022-11-04T11:17:48.147Z,13.17
2022-11-04T11:20:15.410Z,13.37
2022-11-04T11:22:46.866Z,13.40
2022-11-04T11:25:22.518Z,13.46
2022-11-04T11:27:51.090Z,13.38
2022-11-04T11:30:28.240Z,13.24
2022-11-04T11:33:19.725Z,13.22
2022-11-04T11:35:58.900Z,13.22
2022-11-04T11:38:31.147Z,13.23
2022-11-04T11:41:28.722Z,13.20
2022-11-04T11:43:56.381Z,13.22
2022-11-04T11:46:25.513Z,13.18
2022-11-04T11:49:02.975Z,13.21
2022-11-04T11:51:33.781Z,13.20
2022-11-04T11:54:03.413Z,13.19
2022-11-04T11:57:11.468Z,13.24
2022-11-04T12:02:42.003Z,13.40
2022-11-04T12:11:26.529Z,13.68
2022-11-04T12:13:56.920Z,13.68
2022-11-04T12:16:38.979Z,13.64
2022-11-04T12:19:32.095Z,13.63
2022-11-04T12:22:07.110Z,13.61
2022-11-04T12:24:58.173Z,13.81
2022-11-04T12:28:12.869Z,14.50
2022-11-04T12:31:12.622Z,15.46
2022-11-04T12:33:49.654Z,15.38
2022-11-04T12:36:31.812Z,15.16
2022-11-04T12:39:20.269Z,14.82
2022-11-04T12:42:31.373Z,14.46
2022-11-04T12:45:33.789Z,14.09
2022-11-04T12:48:07.635Z,13.92
2022-11-04T12:50:38.765Z,13.77
2022-11-04T12:53:30.263Z,13.63
2022-11-04T12:56:04.934Z,13.53
2022-11-04T12:58:40.020Z,13.76
2022-11-04T13:01:28.420Z,14.21
2022-11-04T13:04:22.945Z,14.73
2022-11-04T13:06:55.486Z,15.27
2022-11-04T13:09:33.872Z,15.41
2022-11-04T13:12:17.709Z,15.39
2022-11-04T13:15:00.474Z,15.22
2022-11-04T13:17:34.800Z,15.24
2022-11-04T13:20:23.174Z,15.25
2022-11-04T13:22:53.096Z,15.41
2022-11-04T13:25:30.965Z,15.69
2022-11-04T13:27:59.497Z,15.90
2022-11-04T13:30:51.245Z,15.94
2022-11-04T13:33:24.114Z,15.67
2022-11-04T13:36:02.218Z,15.33
2022-11-04T13:38:35.247Z,15.00
2022-11-04T13:41:21.382Z,14.74
2022-11-04T13:43:58.134Z,14.53
2022-11-04T13:46:30.933Z,14.51
2022-11-04T13:49:05.826Z,14.55
2022-11-04T13:51:46.365Z,14.90
2022-11-04T13:54:54.315Z,15.27
2022-11-04T13:57:23.704Z,15.41
2022-11-04T14:00:13.150Z,15.56
2022-11-04T14:02:55.988Z,15.25
2022-11-04T14:05:37.034Z,15.05
2022-11-04T14:08:03.478Z,14.74
2022-11-04T14:10:48.430Z,14.55
2022-11-04T14:13:30.285Z,14.32
2022-11-04T14:16:39.704Z,14.12
2022-11-04T14:19:43.876Z,14.21
2022-11-04T14:22:17.693Z,14.59
2022-11-04T14:24:44.917Z,14.93
2022-11-04T14:27:34.552Z,15.38
2022-11-04T14:30:01.690Z,15.65
2022-11-04T14:32:34.787Z,15.73
2022-11-04T14:35:04.509Z,15.54
2022-11-04T14:37:36.649Z,15.37
2022-11-04T14:40:25.081Z,15.22
2022-11-04T14:42:58.619Z,15.13
2022-11-04T14:45:31.551Z,14.92
2022-11-04T14:48:16.095Z,14.76
2022-11-04T14:50:47.306Z,14.58
2022-11-04T14:53:40.221Z,14.47
2022-11-04T14:56:12.853Z,14.36
2022-11-04T14:58:39.433Z,14.25
2022-11-04T15:01:07.667Z,14.10
2022-11-04T15:06:35.289Z,13.69
2022-11-04T15:09:21.794Z,13.60
2022-11-04T15:12:06.859Z,13.80
2022-11-04T15:14:37.569Z,13.60
2022-11-04T15:17:04.309Z,13.35
2022-11-04T15:19:33.626Z,13.13
2022-11-04T15:22:03.304Z,12.95
2022-11-04T15:24:30.995Z,12.78
2022-11-04T15:27:02.576Z,12.63
2022-11-04T15:29:29.022Z,12.49
2022-11-04T15:32:04.703Z,12.34
2022-11-04T15:34:33.576Z,12.21
2022-11-04T15:37:04.343Z,12.12
2022-11-04T15:39:34.860Z,12.03
2022-11-04T15:42:23.992Z,11.95
2022-11-04T15:44:53.192Z,11.87
2022-11-04T15:47:24.080Z,11.81
2022-11-04T15:49:53.278Z,11.74
2022-11-04T15:52:21.649Z,11.63
2022-11-04T15:54:53.495Z,11.53
2022-11-04T15:57:26.400Z,11.44
2022-11-04T15:59:57.644Z,11.38
2022-11-04T16:02:47.115Z,11.31
2022-11-04T16:05:22.586Z,11.26
2022-11-04T16:07:51.916Z,11.25
2022-11-04T16:10:40.060Z,11.24
2022-11-04T16:13:18.732Z,11.21
2022-11-04T16:15:50.107Z,11.19
2022-11-04T16:18:29.911Z,11.17
2022-11-04T16:20:57.039Z,11.14
2022-11-04T16:23:26.213Z,11.10
2022-11-04T16:25:57.644Z,11.06
2022-11-04T16:28:24.205Z,11.03
2022-11-04T16:31:09.209Z,11.00
2022-11-04T16:33:35.742Z,10.98
2022-11-04T16:36:12.218Z,10.95
2022-11-04T16:38:38.674Z,10.92
2022-11-04T16:41:05.486Z,10.88
2022-11-04T16:43:32.970Z,10.83
2022-11-04T16:45:59.605Z,10.78
2022-11-04T16:48:27.582Z,10.72
2022-11-04T16:50:54.959Z,10.67
2022-11-04T16:53:21.536Z,10.63
2022-11-04T16:55:48.247Z,10.59
2022-11-04T16:58:18.675Z,10.57
2022-11-04T17:00:45.453Z,10.55
2022-11-04T17:03:21.545Z,10.52
2022-11-04T17:05:52.085Z,10.47
2022-11-04T17:08:18.564Z,10.41
2022-11-04T17:10:45.406Z,10.36
2022-11-04T17:13:12.243Z,10.32
2022-11-04T17:15:39.825Z,10.28
2022-11-04T17:18:06.566Z,10.24
2022-11-04T17:20:33.122Z,10.20
2022-11-04T17:23:00.163Z,10.16
2022-11-04T17:25:29.818Z,10.13
2022-11-04T17:27:56.496Z,10.10
2022-11-04T17:30:24.203Z,10.08
2022-11-04T17:32:51.029Z,10.07
2022-11-04T17:35:18.746Z,10.07
2022-11-04T17:37:45.796Z,10.07
2022-11-04T17:40:16.143Z,10.08
2022-11-04T17:43:04.431Z,10.09
2022-11-04T17:45:35.134Z,10.10
2022-11-04T17:48:05.806Z,10.11
2022-11-04T17:50:33.613Z,10.12
2022-11-04T17:53:00.136Z,10.10
2022-11-04T17:55:27.825Z,10.07
2022-11-04T17:57:55.477Z,10.04
2022-11-04T18:00:29.429Z,9.99
2022-11-04T18:02:56.225Z,9.95
2022-11-04T18:05:22.766Z,9.92
2022-11-04T18:07:49.263Z,9.90
2022-11-04T18:10:15.707Z,9.87
2022-11-04T18:12:42.212Z,9.83
2022-11-04T18:15:14.486Z,9.78
2022-11-04T18:17:43.887Z,9.74
2022-11-04T18:20:15.162Z,9.70
2022-11-04T18:22:42.757Z,9.67
2022-11-04T18:25:09.970Z,9.63
2022-11-04T18:27:36.874Z,9.57
2022-11-04T18:30:03.735Z,9.52
2022-11-04T18:32:30.216Z,9.46
2022-11-04T18:34:57.596Z,9.39
2022-11-04T18:37:24.020Z,9.34
2022-11-04T18:39:50.708Z,9.28
2022-11-04T18:42:17.220Z,9.23
2022-11-04T18:44:43.730Z,9.17
2022-11-04T18:47:10.273Z,9.12
2022-11-04T18:49:36.706Z,9.07
2022-11-04T18:52:03.549Z,9.03
2022-11-04T18:54:30.439Z,8.99
2022-11-04T18:56:56.998Z,8.95
2022-11-04T18:59:23.609Z,8.91
2022-11-04T19:01:52.457Z,8.88
2022-11-04T19:04:19.266Z,8.85
2022-11-04T19:06:46.263Z,8.81
2022-11-04T19:12:21.186Z,8.74
2022-11-04T19:14:47.832Z,8.69
2022-11-04T19:17:14.955Z,8.65
2022-11-04T19:19:42.974Z,8.61
2022-11-04T19:22:10.043Z,8.57
2022-11-04T19:24:37.085Z,8.53
2022-11-04T19:27:04.511Z,8.51
2022-11-04T19:29:32.326Z,8.48
2022-11-04T19:31:59.986Z,8.45
2022-11-04T19:34:26.620Z,8.41
2022-11-04T19:36:53.316Z,8.38
2022-11-04T19:39:19.783Z,8.32
2022-11-04T19:42:05.108Z,8.27
2022-11-04T19:44:31.779Z,8.21
2022-11-04T19:46:58.290Z,8.15
2022-11-04T19:49:24.844Z,8.11
2022-11-04T19:51:51.348Z,8.06
2022-11-04T19:54:19.090Z,8.02
2022-11-04T19:56:45.919Z,7.98
2022-11-04T19:59:12.482Z,7.93
2022-11-04T20:01:40.140Z,7.90
2022-11-04T20:04:06.989Z,7.86
2022-11-04T20:06:34.111Z,7.84
2022-11-04T20:09:05.371Z,7.82
2022-11-04T20:11:33.308Z,7.79
2022-11-04T20:14:06.551Z,7.78
2022-11-04T20:16:39.556Z,7.78
2022-11-04T20:19:06.508Z,7.77
2022-11-04T20:21:37.245Z,7.78
2022-11-04T20:24:07.091Z,7.80
2022-11-04T20:26:35.616Z,7.81
2022-11-04T20:29:03.046Z,7.82
2022-11-04T20:31:32.544Z,7.83
2022-11-04T20:34:02.445Z,7.84
2022-11-04T20:36:28.996Z,7.86
2022-11-04T20:38:59.924Z,7.88
2022-11-04T20:41:27.089Z,7.88
2022-11-04T20:43:57.078Z,7.89
2022-11-04T20:46:28.625Z,7.88
2022-11-04T20:48:56.766Z,7.87
2022-11-04T20:51:26.635Z,7.85
2022-11-04T20:53:56.344Z,7.84
2022-11-04T20:56:25.320Z,7.84
2022-11-04T20:58:58.627Z,7.84
2022-11-04T21:01:29.032Z,7.85
2022-11-04T21:04:01.132Z,7.84
2022-11-04T21:06:28.609Z,7.84
2022-11-04T21:08:55.570Z,7.83
2022-11-04T21:11:23.022Z,7.83
2022-11-04T21:13:51.792Z,7.81
2022-11-04T21:16:18.494Z,7.78
2022-11-04T21:18:45.407Z,7.76
2022-11-04T21:21:15.920Z,7.74
2022-11-04T21:23:43.085Z,7.70
2022-11-04T21:26:15.701Z,7.67
2022-11-04T21:28:42.299Z,7.64
2022-11-04T21:31:11.327Z,7.62
2022-11-04T21:33:38.556Z,7.59
2022-11-04T21:36:08.017Z,7.55
2022-11-04T21:38:34.868Z,7.52
2022-11-04T21:41:10.697Z,7.49
2022-11-04T21:43:37.131Z,7.46
2022-11-04T21:46:10.093Z,7.44
2022-11-04T21:48:37.584Z,7.42
2022-11-04T21:51:09.733Z,7.39
2022-11-04T21:53:36.279Z,7.38
2022-11-04T21:56:04.005Z,7.36
2022-11-04T21:58:30.889Z,7.35
2022-11-04T22:00:58.267Z,7.33
2022-11-04T22:03:25.167Z,7.31
2022-11-04T22:06:05.987Z,7.31
2022-11-04T22:08:33.376Z,7.32
2022-11-04T22:11:07.946Z,7.32
2022-11-04T22:13:34.693Z,7.30
2022-11-04T22:16:01.723Z,7.26
2022-11-04T22:18:31.445Z,7.23
2022-11-04T22:21:03.210Z,7.18
2022-11-04T22:23:32.396Z,7.13
2022-11-04T22:26:01.229Z,7.09
2022-11-04T22:28:27.998Z,7.05
2022-11-04T22:30:54.626Z,7.02
2022-11-04T22:33:21.336Z,6.99
2022-11-04T22:35:48.059Z,6.98
2022-11-04T22:38:14.536Z,6.97
2022-11-04T22:40:41.044Z,6.94
2022-11-04T22:43:07.669Z,6.93
2022-11-04T22:45:34.587Z,6.92
2022-11-04T22:48:00.982Z,6.91
2022-11-04T22:50:27.494Z,6.91
2022-11-04T22:52:54.237Z,6.90
2022-11-04T22:55:20.684Z,6.90
2022-11-04T22:57:47.192Z,6.90
2022-11-04T23:00:14.393Z,6.89
2022-11-04T23:02:40.988Z,6.89
2022-11-04T23:05:07.842Z,6.88
2022-11-04T23:07:34.292Z,6.88
2022-11-04T23:10:19.695Z,6.87
2022-11-04T23:13:05.062Z,6.87
2022-11-04T23:15:50.236Z,6.85
2022-11-04T23:18:35.610Z,6.84
2022-11-04T23:21:20.648Z,6.83
2022-11-04T23:24:05.896Z,6.81
2022-11-04T23:26:32.876Z,6.79
2022-11-04T23:29:20.434Z,6.77
2022-11-04T23:31:46.952Z,6.77
2022-11-04T23:34:32.349Z,6.75
2022-11-04T23:37:14.253Z,6.74
2022-11-04T23:39:45.366Z,6.74
2022-11-04T23:42:18.294Z,6.72
2022-11-04T23:45:13.716Z,6.72
2022-11-04T23:48:01.920Z,6.71
2022-11-04T23:50:51.200Z,6.71
2022-11-04T23:53:37.905Z,6.71
2022-11-04T23:56:24.229Z,6.71
2022-11-04T23:59:09.372Z,6.70
